sensor_id;sensor_type;location;lat;lon;timestamp;P1;durP1;ratioP1;P2;durP2;ratioP2
67500;SDS011;54349;52.528;19.760;2022-07-05T00:01:00;4.80;;;2.90;;
67500;SDS011;54349;52.528;19.760;2022-07-05T00:03:29;4.20;;;3.10;;
67500;SDS011;54349;52.528;19.760;2022-07-05T00:05:58;4.30;;;2.90;;
67500;SDS011;54349;52.528;19.760;2022-07-05T00:08:26;4.60;;;3.10;;
67500;SDS011;54349;52.528;19.760;2022-07-05T00:10:54;4.10;;;3.00;;
67500;SDS011;54349;52.528;19.760;2022-07-05T00:13:23;4.50;;;2.80;;
67500;SDS011;54349;52.528;19.760;2022-07-05T00:15:51;4.20;;;2.90;;
67500;SDS011;54349;52.528;19.760;2022-07-05T00:18:20;4.50;;;3.20;;
67500;SDS011;54349;52.528;19.760;2022-07-05T00:20:48;5.30;;;3.30;;
67500;SDS011;54349;52.528;19.760;2022-07-05T00:23:16;5.40;;;3.40;;
67500;SDS011;54349;52.528;19.760;2022-07-05T00:25:44;6.90;;;3.70;;
67500;SDS011;54349;52.528;19.760;2022-07-05T00:28:13;4.60;;;3.40;;
67500;SDS011;54349;52.528;19.760;2022-07-05T00:30:43;4.40;;;3.40;;
67500;SDS011;54349;52.528;19.760;2022-07-05T00:33:11;4.70;;;3.40;;
67500;SDS011;54349;52.528;19.760;2022-07-05T00:35:39;5.10;;;3.60;;
67500;SDS011;54349;52.528;19.760;2022-07-05T00:38:08;4.90;;;3.60;;
67500;SDS011;54349;52.528;19.760;2022-07-05T00:40:36;5.00;;;3.60;;
67500;SDS011;54349;52.528;19.760;2022-07-05T00:43:05;5.40;;;3.60;;
67500;SDS011;54349;52.528;19.760;2022-07-05T00:45:33;4.50;;;3.40;;
67500;SDS011;54349;52.528;19.760;2022-07-05T00:48:01;5.60;;;3.70;;
67500;SDS011;54349;52.528;19.760;2022-07-05T00:50:30;5.40;;;3.40;;
67500;SDS011;54349;52.528;19.760;2022-07-05T00:52:59;5.20;;;3.50;;
67500;SDS011;54349;52.528;19.760;2022-07-05T00:55:28;5.00;;;3.60;;
67500;SDS011;54349;52.528;19.760;2022-07-05T00:57:56;5.70;;;3.60;;
67500;SDS011;54349;52.528;19.760;2022-07-05T01:00:25;4.50;;;3.40;;
67500;SDS011;54349;52.528;19.760;2022-07-05T01:02:54;6.10;;;3.50;;
67500;SDS011;54349;52.528;19.760;2022-07-05T01:05:22;4.70;;;3.50;;
67500;SDS011;54349;52.528;19.760;2022-07-05T01:07:51;5.30;;;3.60;;
67500;SDS011;54349;52.528;19.760;2022-07-05T01:10:19;5.20;;;3.50;;
67500;SDS011;54349;52.528;19.760;2022-07-05T01:12:48;5.20;;;3.50;;
67500;SDS011;54349;52.528;19.760;2022-07-05T01:15:17;5.00;;;3.60;;
67500;SDS011;54349;52.528;19.760;2022-07-05T01:17:49;4.90;;;3.60;;
67500;SDS011;54349;52.528;19.760;2022-07-05T01:20:18;4.70;;;3.40;;
67500;SDS011;54349;52.528;19.760;2022-07-05T01:22:57;4.30;;;3.50;;
67500;SDS011;54349;52.528;19.760;2022-07-05T01:25:29;4.90;;;3.60;;
67500;SDS011;54349;52.528;19.760;2022-07-05T01:27:59;7.50;;;3.90;;
67500;SDS011;54349;52.528;19.760;2022-07-05T01:30:30;5.30;;;3.50;;
67500;SDS011;54349;52.528;19.760;2022-07-05T01:33:05;5.00;;;3.50;;
67500;SDS011;54349;52.528;19.760;2022-07-05T01:35:35;5.10;;;3.60;;
67500;SDS011;54349;52.528;19.760;2022-07-05T01:38:05;5.60;;;3.50;;
67500;SDS011;54349;52.528;19.760;2022-07-05T01:40:33;5.40;;;3.90;;
67500;SDS011;54349;52.528;19.760;2022-07-05T01:43:02;4.40;;;3.30;;
67500;SDS011;54349;52.528;19.760;2022-07-05T01:45:31;5.10;;;3.50;;
67500;SDS011;54349;52.528;19.760;2022-07-05T01:48:12;4.80;;;3.50;;
67500;SDS011;54349;52.528;19.760;2022-07-05T01:50:58;4.70;;;3.40;;
67500;SDS011;54349;52.528;19.760;2022-07-05T01:53:32;5.20;;;3.20;;
67500;SDS011;54349;52.528;19.760;2022-07-05T01:56:02;5.50;;;3.50;;
67500;SDS011;54349;52.528;19.760;2022-07-05T01:58:32;4.70;;;3.40;;
67500;SDS011;54349;52.528;19.760;2022-07-05T02:01:01;4.40;;;3.10;;
67500;SDS011;54349;52.528;19.760;2022-07-05T02:03:30;4.60;;;3.20;;
67500;SDS011;54349;52.528;19.760;2022-07-05T02:06:18;5.90;;;3.20;;
67500;SDS011;54349;52.528;19.760;2022-07-05T02:08:47;4.40;;;3.30;;
67500;SDS011;54349;52.528;19.760;2022-07-05T02:11:15;5.60;;;3.30;;
67500;SDS011;54349;52.528;19.760;2022-07-05T02:13:43;5.30;;;3.40;;
67500;SDS011;54349;52.528;19.760;2022-07-05T02:16:12;5.00;;;3.30;;
67500;SDS011;54349;52.528;19.760;2022-07-05T02:18:40;5.10;;;3.20;;
67500;SDS011;54349;52.528;19.760;2022-07-05T02:21:08;4.30;;;3.30;;
67500;SDS011;54349;52.528;19.760;2022-07-05T02:23:37;4.40;;;3.40;;
67500;SDS011;54349;52.528;19.760;2022-07-05T02:26:06;5.70;;;3.30;;
67500;SDS011;54349;52.528;19.760;2022-07-05T02:28:34;5.50;;;3.40;;
67500;SDS011;54349;52.528;19.760;2022-07-05T02:31:03;4.50;;;3.10;;
67500;SDS011;54349;52.528;19.760;2022-07-05T02:33:31;5.80;;;3.00;;
67500;SDS011;54349;52.528;19.760;2022-07-05T02:36:09;4.40;;;3.10;;
67500;SDS011;54349;52.528;19.760;2022-07-05T02:38:39;4.70;;;3.10;;
67500;SDS011;54349;52.528;19.760;2022-07-05T02:41:10;4.00;;;2.80;;
67500;SDS011;54349;52.528;19.760;2022-07-05T02:43:41;5.20;;;3.10;;
67500;SDS011;54349;52.528;19.760;2022-07-05T02:46:10;4.90;;;3.00;;
67500;SDS011;54349;52.528;19.760;2022-07-05T02:48:39;4.70;;;3.00;;
67500;SDS011;54349;52.528;19.760;2022-07-05T02:51:07;4.40;;;3.00;;
67500;SDS011;54349;52.528;19.760;2022-07-05T02:53:36;4.40;;;2.90;;
67500;SDS011;54349;52.528;19.760;2022-07-05T02:56:06;4.10;;;2.80;;
67500;SDS011;54349;52.528;19.760;2022-07-05T02:58:34;3.90;;;2.70;;
67500;SDS011;54349;52.528;19.760;2022-07-05T03:01:05;5.20;;;3.10;;
67500;SDS011;54349;52.528;19.760;2022-07-05T03:03:34;4.30;;;2.90;;
67500;SDS011;54349;52.528;19.760;2022-07-05T03:06:03;4.20;;;3.10;;
67500;SDS011;54349;52.528;19.760;2022-07-05T03:08:32;5.90;;;2.80;;
67500;SDS011;54349;52.528;19.760;2022-07-05T03:11:00;4.50;;;3.00;;
67500;SDS011;54349;52.528;19.760;2022-07-05T03:13:29;3.70;;;2.70;;
67500;SDS011;54349;52.528;19.760;2022-07-05T03:15:57;4.90;;;2.80;;
67500;SDS011;54349;52.528;19.760;2022-07-05T03:18:26;3.70;;;2.80;;
67500;SDS011;54349;52.528;19.760;2022-07-05T03:20:55;4.30;;;2.70;;
67500;SDS011;54349;52.528;19.760;2022-07-05T03:23:24;4.30;;;2.90;;
67500;SDS011;54349;52.528;19.760;2022-07-05T03:25:55;3.40;;;2.60;;
67500;SDS011;54349;52.528;19.760;2022-07-05T03:28:23;4.70;;;2.60;;
67500;SDS011;54349;52.528;19.760;2022-07-05T03:30:53;3.60;;;2.70;;
67500;SDS011;54349;52.528;19.760;2022-07-05T03:33:21;5.00;;;2.80;;
67500;SDS011;54349;52.528;19.760;2022-07-05T03:35:56;5.00;;;2.60;;
67500;SDS011;54349;52.528;19.760;2022-07-05T03:38:25;4.10;;;2.70;;
67500;SDS011;54349;52.528;19.760;2022-07-05T03:40:53;4.40;;;2.80;;
67500;SDS011;54349;52.528;19.760;2022-07-05T03:43:22;3.80;;;2.70;;
67500;SDS011;54349;52.528;19.760;2022-07-05T03:45:51;4.20;;;2.90;;
67500;SDS011;54349;52.528;19.760;2022-07-05T03:48:19;3.80;;;2.70;;
67500;SDS011;54349;52.528;19.760;2022-07-05T03:51:08;3.70;;;2.50;;
67500;SDS011;54349;52.528;19.760;2022-07-05T03:53:37;4.30;;;2.50;;
67500;SDS011;54349;52.528;19.760;2022-07-05T03:56:06;4.90;;;2.80;;
67500;SDS011;54349;52.528;19.760;2022-07-05T03:58:37;4.90;;;2.40;;
67500;SDS011;54349;52.528;19.760;2022-07-05T04:01:06;3.10;;;2.30;;
67500;SDS011;54349;52.528;19.760;2022-07-05T04:03:34;3.70;;;2.30;;
67500;SDS011;54349;52.528;19.760;2022-07-05T04:06:09;3.50;;;2.30;;
67500;SDS011;54349;52.528;19.760;2022-07-05T04:08:38;4.90;;;2.90;;
67500;SDS011;54349;52.528;19.760;2022-07-05T04:11:07;4.00;;;2.70;;
67500;SDS011;54349;52.528;19.760;2022-07-05T04:13:37;4.30;;;2.50;;
67500;SDS011;54349;52.528;19.760;2022-07-05T04:16:07;3.90;;;2.40;;
67500;SDS011;54349;52.528;19.760;2022-07-05T04:18:37;4.70;;;2.50;;
67500;SDS011;54349;52.528;19.760;2022-07-05T04:21:05;3.90;;;2.70;;
67500;SDS011;54349;52.528;19.760;2022-07-05T04:23:34;3.50;;;2.50;;
67500;SDS011;54349;52.528;19.760;2022-07-05T04:26:03;4.50;;;2.50;;
67500;SDS011;54349;52.528;19.760;2022-07-05T04:28:38;3.90;;;2.60;;
67500;SDS011;54349;52.528;19.760;2022-07-05T04:31:08;4.50;;;2.60;;
67500;SDS011;54349;52.528;19.760;2022-07-05T04:33:41;3.80;;;2.50;;
67500;SDS011;54349;52.528;19.760;2022-07-05T04:36:10;4.50;;;2.60;;
67500;SDS011;54349;52.528;19.760;2022-07-05T04:38:39;4.20;;;2.40;;
67500;SDS011;54349;52.528;19.760;2022-07-05T04:41:08;3.00;;;2.40;;
67500;SDS011;54349;52.528;19.760;2022-07-05T04:43:36;4.00;;;2.60;;
67500;SDS011;54349;52.528;19.760;2022-07-05T04:46:07;4.00;;;2.30;;
67500;SDS011;54349;52.528;19.760;2022-07-05T04:48:35;4.90;;;2.40;;
67500;SDS011;54349;52.528;19.760;2022-07-05T04:51:05;4.40;;;2.40;;
67500;SDS011;54349;52.528;19.760;2022-07-05T04:53:33;4.30;;;2.30;;
67500;SDS011;54349;52.528;19.760;2022-07-05T04:56:02;4.00;;;2.30;;
67500;SDS011;54349;52.528;19.760;2022-07-05T04:58:30;3.50;;;2.30;;
67500;SDS011;54349;52.528;19.760;2022-07-05T05:00:58;3.80;;;2.50;;
67500;SDS011;54349;52.528;19.760;2022-07-05T05:03:27;3.70;;;2.40;;
67500;SDS011;54349;52.528;19.760;2022-07-05T05:05:55;4.60;;;2.50;;
67500;SDS011;54349;52.528;19.760;2022-07-05T05:08:23;3.80;;;2.10;;
67500;SDS011;54349;52.528;19.760;2022-07-05T05:10:51;3.50;;;2.30;;
67500;SDS011;54349;52.528;19.760;2022-07-05T05:13:20;4.10;;;2.40;;
67500;SDS011;54349;52.528;19.760;2022-07-05T05:15:48;3.80;;;2.50;;
67500;SDS011;54349;52.528;19.760;2022-07-05T05:18:16;3.90;;;2.30;;
67500;SDS011;54349;52.528;19.760;2022-07-05T05:20:46;4.60;;;2.50;;
67500;SDS011;54349;52.528;19.760;2022-07-05T05:23:14;4.70;;;2.30;;
67500;SDS011;54349;52.528;19.760;2022-07-05T05:25:42;2.90;;;2.30;;
67500;SDS011;54349;52.528;19.760;2022-07-05T05:28:10;2.70;;;2.30;;
67500;SDS011;54349;52.528;19.760;2022-07-05T05:30:39;3.00;;;2.30;;
67500;SDS011;54349;52.528;19.760;2022-07-05T05:33:07;3.60;;;2.30;;
67500;SDS011;54349;52.528;19.760;2022-07-05T05:35:35;3.80;;;2.40;;
67500;SDS011;54349;52.528;19.760;2022-07-05T05:38:04;3.40;;;2.10;;
67500;SDS011;54349;52.528;19.760;2022-07-05T05:40:32;2.50;;;2.10;;
67500;SDS011;54349;52.528;19.760;2022-07-05T05:43:01;3.70;;;2.50;;
67500;SDS011;54349;52.528;19.760;2022-07-05T05:45:29;4.10;;;2.50;;
67500;SDS011;54349;52.528;19.760;2022-07-05T05:47:59;2.90;;;2.10;;
67500;SDS011;54349;52.528;19.760;2022-07-05T05:50:36;3.10;;;2.10;;
67500;SDS011;54349;52.528;19.760;2022-07-05T05:53:07;3.10;;;2.20;;
67500;SDS011;54349;52.528;19.760;2022-07-05T05:55:36;3.90;;;2.30;;
67500;SDS011;54349;52.528;19.760;2022-07-05T05:58:30;4.00;;;2.10;;
67500;SDS011;54349;52.528;19.760;2022-07-05T06:00:58;3.80;;;2.40;;
67500;SDS011;54349;52.528;19.760;2022-07-05T06:03:27;3.50;;;2.20;;
67500;SDS011;54349;52.528;19.760;2022-07-05T06:05:55;4.90;;;2.00;;
67500;SDS011;54349;52.528;19.760;2022-07-05T06:08:25;3.90;;;2.00;;
67500;SDS011;54349;52.528;19.760;2022-07-05T06:10:53;5.30;;;2.40;;
67500;SDS011;54349;52.528;19.760;2022-07-05T06:13:31;3.60;;;2.20;;
67500;SDS011;54349;52.528;19.760;2022-07-05T06:15:59;3.30;;;2.10;;
67500;SDS011;54349;52.528;19.760;2022-07-05T06:18:28;3.60;;;2.10;;
67500;SDS011;54349;52.528;19.760;2022-07-05T06:20:56;3.70;;;2.20;;
67500;SDS011;54349;52.528;19.760;2022-07-05T06:23:24;4.50;;;2.00;;
67500;SDS011;54349;52.528;19.760;2022-07-05T06:25:52;2.40;;;2.10;;
67500;SDS011;54349;52.528;19.760;2022-07-05T06:28:20;3.00;;;1.90;;
67500;SDS011;54349;52.528;19.760;2022-07-05T06:30:49;4.50;;;2.00;;
67500;SDS011;54349;52.528;19.760;2022-07-05T06:33:17;3.40;;;2.00;;
67500;SDS011;54349;52.528;19.760;2022-07-05T06:35:45;2.90;;;2.00;;
67500;SDS011;54349;52.528;19.760;2022-07-05T06:38:13;5.10;;;2.10;;
67500;SDS011;54349;52.528;19.760;2022-07-05T06:40:42;2.90;;;1.90;;
67500;SDS011;54349;52.528;19.760;2022-07-05T06:43:13;2.70;;;2.10;;
67500;SDS011;54349;52.528;19.760;2022-07-05T06:45:54;2.40;;;1.80;;
67500;SDS011;54349;52.528;19.760;2022-07-05T06:48:23;3.90;;;2.10;;
67500;SDS011;54349;52.528;19.760;2022-07-05T06:50:52;3.60;;;2.00;;
67500;SDS011;54349;52.528;19.760;2022-07-05T06:53:20;3.40;;;1.90;;
67500;SDS011;54349;52.528;19.760;2022-07-05T06:55:48;2.80;;;2.00;;
67500;SDS011;54349;52.528;19.760;2022-07-05T07:00:52;3.60;;;2.10;;
67500;SDS011;54349;52.528;19.760;2022-07-05T07:03:42;4.40;;;1.90;;
67500;SDS011;54349;52.528;19.760;2022-07-05T07:06:31;3.10;;;1.90;;
67500;SDS011;54349;52.528;19.760;2022-07-05T07:09:01;2.70;;;1.80;;
67500;SDS011;54349;52.528;19.760;2022-07-05T07:11:49;2.60;;;1.80;;
67500;SDS011;54349;52.528;19.760;2022-07-05T07:14:17;2.80;;;1.90;;
67500;SDS011;54349;52.528;19.760;2022-07-05T07:16:45;2.80;;;1.70;;
67500;SDS011;54349;52.528;19.760;2022-07-05T07:19:14;2.20;;;1.80;;
67500;SDS011;54349;52.528;19.760;2022-07-05T07:21:42;3.20;;;2.00;;
67500;SDS011;54349;52.528;19.760;2022-07-05T07:24:11;4.20;;;1.90;;
67500;SDS011;54349;52.528;19.760;2022-07-05T07:26:40;2.30;;;1.90;;
67500;SDS011;54349;52.528;19.760;2022-07-05T07:29:28;3.70;;;1.80;;
67500;SDS011;54349;52.528;19.760;2022-07-05T07:32:00;2.20;;;1.80;;
67500;SDS011;54349;52.528;19.760;2022-07-05T07:34:31;3.50;;;1.90;;
67500;SDS011;54349;52.528;19.760;2022-07-05T07:37:00;2.30;;;1.70;;
67500;SDS011;54349;52.528;19.760;2022-07-05T07:39:29;2.60;;;1.80;;
67500;SDS011;54349;52.528;19.760;2022-07-05T07:42:00;3.50;;;1.90;;
67500;SDS011;54349;52.528;19.760;2022-07-05T07:44:28;2.40;;;1.80;;
67500;SDS011;54349;52.528;19.760;2022-07-05T07:46:56;2.10;;;1.70;;
67500;SDS011;54349;52.528;19.760;2022-07-05T07:49:25;3.70;;;1.80;;
67500;SDS011;54349;52.528;19.760;2022-07-05T07:51:53;2.50;;;1.80;;
67500;SDS011;54349;52.528;19.760;2022-07-05T07:54:22;2.60;;;1.70;;
67500;SDS011;54349;52.528;19.760;2022-07-05T07:56:50;3.50;;;1.80;;
67500;SDS011;54349;52.528;19.760;2022-07-05T07:59:18;2.10;;;1.60;;
67500;SDS011;54349;52.528;19.760;2022-07-05T08:01:46;2.20;;;1.80;;
67500;SDS011;54349;52.528;19.760;2022-07-05T08:04:15;2.30;;;1.80;;
67500;SDS011;54349;52.528;19.760;2022-07-05T08:06:44;2.90;;;1.70;;
67500;SDS011;54349;52.528;19.760;2022-07-05T08:09:13;2.90;;;1.80;;
67500;SDS011;54349;52.528;19.760;2022-07-05T08:11:46;1.90;;;1.70;;
67500;SDS011;54349;52.528;19.760;2022-07-05T08:14:16;1.90;;;1.70;;
67500;SDS011;54349;52.528;19.760;2022-07-05T08:16:47;2.50;;;1.80;;
67500;SDS011;54349;52.528;19.760;2022-07-05T08:19:20;4.10;;;1.90;;
67500;SDS011;54349;52.528;19.760;2022-07-05T08:22:08;1.90;;;1.70;;
67500;SDS011;54349;52.528;19.760;2022-07-05T08:24:38;2.70;;;1.70;;
67500;SDS011;54349;52.528;19.760;2022-07-05T08:27:11;2.50;;;1.90;;
67500;SDS011;54349;52.528;19.760;2022-07-05T08:29:39;2.40;;;1.80;;
67500;SDS011;54349;52.528;19.760;2022-07-05T08:32:08;3.20;;;1.90;;
67500;SDS011;54349;52.528;19.760;2022-07-05T08:34:37;2.10;;;1.80;;
67500;SDS011;54349;52.528;19.760;2022-07-05T08:37:06;2.00;;;1.80;;
67500;SDS011;54349;52.528;19.760;2022-07-05T08:39:42;1.90;;;1.80;;
67500;SDS011;54349;52.528;19.760;2022-07-05T08:42:11;1.70;;;1.50;;
67500;SDS011;54349;52.528;19.760;2022-07-05T08:44:42;1.80;;;1.60;;
67500;SDS011;54349;52.528;19.760;2022-07-05T08:47:12;2.10;;;1.70;;
67500;SDS011;54349;52.528;19.760;2022-07-05T08:49:43;2.10;;;1.60;;
67500;SDS011;54349;52.528;19.760;2022-07-05T08:52:18;1.90;;;1.70;;
67500;SDS011;54349;52.528;19.760;2022-07-05T08:54:49;2.40;;;1.70;;
67500;SDS011;54349;52.528;19.760;2022-07-05T08:57:19;1.80;;;1.60;;
67500;SDS011;54349;52.528;19.760;2022-07-05T08:59:47;1.70;;;1.60;;
67500;SDS011;54349;52.528;19.760;2022-07-05T09:02:16;2.30;;;1.60;;
67500;SDS011;54349;52.528;19.760;2022-07-05T09:04:45;2.80;;;1.70;;
67500;SDS011;54349;52.528;19.760;2022-07-05T09:07:18;2.40;;;1.80;;
67500;SDS011;54349;52.528;19.760;2022-07-05T09:09:48;1.80;;;1.60;;
67500;SDS011;54349;52.528;19.760;2022-07-05T09:12:19;2.20;;;1.70;;
67500;SDS011;54349;52.528;19.760;2022-07-05T09:14:54;3.20;;;1.80;;
67500;SDS011;54349;52.528;19.760;2022-07-05T09:17:23;2.10;;;1.60;;
67500;SDS011;54349;52.528;19.760;2022-07-05T09:20:14;2.60;;;1.70;;
67500;SDS011;54349;52.528;19.760;2022-07-05T09:25:21;2.40;;;1.50;;
67500;SDS011;54349;52.528;19.760;2022-07-05T09:28:11;3.60;;;1.60;;
67500;SDS011;54349;52.528;19.760;2022-07-05T09:30:40;2.20;;;1.70;;
67500;SDS011;54349;52.528;19.760;2022-07-05T09:33:15;1.90;;;1.40;;
67500;SDS011;54349;52.528;19.760;2022-07-05T09:36:04;2.50;;;1.50;;
67500;SDS011;54349;52.528;19.760;2022-07-05T09:38:33;1.60;;;1.50;;
67500;SDS011;54349;52.528;19.760;2022-07-05T09:41:02;1.60;;;1.50;;
67500;SDS011;54349;52.528;19.760;2022-07-05T09:43:30;2.20;;;1.70;;
67500;SDS011;54349;52.528;19.760;2022-07-05T09:46:03;1.60;;;1.50;;
67500;SDS011;54349;52.528;19.760;2022-07-05T09:48:33;1.60;;;1.50;;
67500;SDS011;54349;52.528;19.760;2022-07-05T09:51:11;2.00;;;1.70;;
67500;SDS011;54349;52.528;19.760;2022-07-05T09:54:01;1.60;;;1.50;;
67500;SDS011;54349;52.528;19.760;2022-07-05T09:56:44;1.70;;;1.40;;
67500;SDS011;54349;52.528;19.760;2022-07-05T09:59:22;1.60;;;1.50;;
67500;SDS011;54349;52.528;19.760;2022-07-05T10:01:51;1.80;;;1.50;;
67500;SDS011;54349;52.528;19.760;2022-07-05T10:04:20;2.10;;;1.60;;
67500;SDS011;54349;52.528;19.760;2022-07-05T10:06:49;2.10;;;1.50;;
67500;SDS011;54349;52.528;19.760;2022-07-05T10:09:17;1.90;;;1.50;;
67500;SDS011;54349;52.528;19.760;2022-07-05T10:11:47;1.60;;;1.40;;
67500;SDS011;54349;52.528;19.760;2022-07-05T10:14:19;1.80;;;1.60;;
67500;SDS011;54349;52.528;19.760;2022-07-05T10:17:01;2.20;;;1.50;;
67500;SDS011;54349;52.528;19.760;2022-07-05T10:19:33;1.90;;;1.60;;
67500;SDS011;54349;52.528;19.760;2022-07-05T10:22:11;1.70;;;1.60;;
67500;SDS011;54349;52.528;19.760;2022-07-05T10:24:46;1.60;;;1.50;;
67500;SDS011;54349;52.528;19.760;2022-07-05T10:27:17;1.90;;;1.50;;
67500;SDS011;54349;52.528;19.760;2022-07-05T10:29:48;2.00;;;1.50;;
67500;SDS011;54349;52.528;19.760;2022-07-05T10:32:18;2.00;;;1.60;;
67500;SDS011;54349;52.528;19.760;2022-07-05T10:34:49;1.50;;;1.40;;
67500;SDS011;54349;52.528;19.760;2022-07-05T10:37:28;1.70;;;1.50;;
67500;SDS011;54349;52.528;19.760;2022-07-05T10:40:00;1.60;;;1.50;;
67500;SDS011;54349;52.528;19.760;2022-07-05T10:42:39;2.20;;;1.70;;
67500;SDS011;54349;52.528;19.760;2022-07-05T10:50:54;1.80;;;1.50;;
67500;SDS011;54349;52.528;19.760;2022-07-05T10:56:11;1.60;;;1.50;;
67500;SDS011;54349;52.528;19.760;2022-07-05T10:58:43;1.70;;;1.50;;
67500;SDS011;54349;52.528;19.760;2022-07-05T11:03:47;1.50;;;1.40;;
67500;SDS011;54349;52.528;19.760;2022-07-05T11:11:43;1.70;;;1.40;;
67500;SDS011;54349;52.528;19.760;2022-07-05T11:14:34;2.40;;;1.70;;
67500;SDS011;54349;52.528;19.760;2022-07-05T11:22:25;2.20;;;1.40;;
67500;SDS011;54349;52.528;19.760;2022-07-05T11:24:55;1.50;;;1.40;;
67500;SDS011;54349;52.528;19.760;2022-07-05T11:27:25;1.40;;;1.30;;
67500;SDS011;54349;52.528;19.760;2022-07-05T11:29:54;1.70;;;1.50;;
67500;SDS011;54349;52.528;19.760;2022-07-05T11:35:15;1.70;;;1.50;;
67500;SDS011;54349;52.528;19.760;2022-07-05T11:40:47;2.20;;;1.40;;
67500;SDS011;54349;52.528;19.760;2022-07-05T11:43:29;1.80;;;1.40;;
67500;SDS011;54349;52.528;19.760;2022-07-05T11:45:58;1.60;;;1.50;;
67500;SDS011;54349;52.528;19.760;2022-07-05T11:48:29;1.60;;;1.40;;
67500;SDS011;54349;52.528;19.760;2022-07-05T11:50:57;2.70;;;1.60;;
67500;SDS011;54349;52.528;19.760;2022-07-05T11:53:28;1.60;;;1.50;;
67500;SDS011;54349;52.528;19.760;2022-07-05T11:56:18;1.40;;;1.30;;
67500;SDS011;54349;52.528;19.760;2022-07-05T11:58:47;2.50;;;1.60;;
67500;SDS011;54349;52.528;19.760;2022-07-05T12:01:15;2.10;;;1.40;;
67500;SDS011;54349;52.528;19.760;2022-07-05T12:03:54;1.70;;;1.40;;
67500;SDS011;54349;52.528;19.760;2022-07-05T12:06:23;1.50;;;1.40;;
67500;SDS011;54349;52.528;19.760;2022-07-05T12:09:04;2.20;;;1.40;;
67500;SDS011;54349;52.528;19.760;2022-07-05T12:11:33;1.50;;;1.40;;
67500;SDS011;54349;52.528;19.760;2022-07-05T12:14:23;1.80;;;1.50;;
67500;SDS011;54349;52.528;19.760;2022-07-05T12:17:14;1.50;;;1.40;;
67500;SDS011;54349;52.528;19.760;2022-07-05T12:19:51;1.40;;;1.30;;
67500;SDS011;54349;52.528;19.760;2022-07-05T12:22:29;2.10;;;1.50;;
67500;SDS011;54349;52.528;19.760;2022-07-05T12:25:00;1.40;;;1.30;;
67500;SDS011;54349;52.528;19.760;2022-07-05T12:27:31;1.50;;;1.40;;
67500;SDS011;54349;52.528;19.760;2022-07-05T12:30:03;1.70;;;1.40;;
67500;SDS011;54349;52.528;19.760;2022-07-05T12:32:33;2.70;;;1.40;;
67500;SDS011;54349;52.528;19.760;2022-07-05T12:35:04;1.40;;;1.30;;
67500;SDS011;54349;52.528;19.760;2022-07-05T12:37:52;1.50;;;1.40;;
67500;SDS011;54349;52.528;19.760;2022-07-05T12:40:22;3.10;;;1.60;;
67500;SDS011;54349;52.528;19.760;2022-07-05T12:43:06;2.00;;;1.50;;
67500;SDS011;54349;52.528;19.760;2022-07-05T12:45:40;2.10;;;1.50;;
67500;SDS011;54349;52.528;19.760;2022-07-05T12:48:11;1.50;;;1.40;;
67500;SDS011;54349;52.528;19.760;2022-07-05T12:50:51;1.40;;;1.30;;
67500;SDS011;54349;52.528;19.760;2022-07-05T12:53:49;1.50;;;1.40;;
67500;SDS011;54349;52.528;19.760;2022-07-05T12:56:51;1.50;;;1.20;;
67500;SDS011;54349;52.528;19.760;2022-07-05T12:59:59;1.60;;;1.50;;
67500;SDS011;54349;52.528;19.760;2022-07-05T13:05:19;2.20;;;1.60;;
67500;SDS011;54349;52.528;19.760;2022-07-05T13:07:52;1.30;;;1.20;;
67500;SDS011;54349;52.528;19.760;2022-07-05T13:10:26;1.50;;;1.30;;
67500;SDS011;54349;52.528;19.760;2022-07-05T13:13:07;1.50;;;1.40;;
67500;SDS011;54349;52.528;19.760;2022-07-05T13:15:36;1.80;;;1.50;;
67500;SDS011;54349;52.528;19.760;2022-07-05T13:18:08;2.20;;;1.50;;
67500;SDS011;54349;52.528;19.760;2022-07-05T13:20:37;1.50;;;1.20;;
67500;SDS011;54349;52.528;19.760;2022-07-05T13:23:05;1.70;;;1.40;;
67500;SDS011;54349;52.528;19.760;2022-07-05T13:25:33;1.50;;;1.40;;
67500;SDS011;54349;52.528;19.760;2022-07-05T13:28:01;2.10;;;1.50;;
67500;SDS011;54349;52.528;19.760;2022-07-05T13:30:29;1.90;;;1.30;;
67500;SDS011;54349;52.528;19.760;2022-07-05T13:32:57;2.40;;;1.40;;
67500;SDS011;54349;52.528;19.760;2022-07-05T13:35:25;1.70;;;1.40;;
67500;SDS011;54349;52.528;19.760;2022-07-05T13:37:53;1.40;;;1.30;;
67500;SDS011;54349;52.528;19.760;2022-07-05T13:40:22;1.50;;;1.40;;
67500;SDS011;54349;52.528;19.760;2022-07-05T13:42:50;1.50;;;1.40;;
67500;SDS011;54349;52.528;19.760;2022-07-05T13:45:18;1.70;;;1.50;;
67500;SDS011;54349;52.528;19.760;2022-07-05T13:47:52;1.80;;;1.50;;
67500;SDS011;54349;52.528;19.760;2022-07-05T13:50:20;1.90;;;1.50;;
67500;SDS011;54349;52.528;19.760;2022-07-05T13:53:03;1.60;;;1.40;;
67500;SDS011;54349;52.528;19.760;2022-07-05T13:55:31;1.40;;;1.30;;
67500;SDS011;54349;52.528;19.760;2022-07-05T13:58:00;1.60;;;1.40;;
67500;SDS011;54349;52.528;19.760;2022-07-05T14:00:28;1.40;;;1.30;;
67500;SDS011;54349;52.528;19.760;2022-07-05T14:02:57;1.50;;;1.40;;
67500;SDS011;54349;52.528;19.760;2022-07-05T14:05:32;1.40;;;1.30;;
67500;SDS011;54349;52.528;19.760;2022-07-05T14:08:01;1.50;;;1.30;;
67500;SDS011;54349;52.528;19.760;2022-07-05T14:10:30;2.00;;;1.40;;
67500;SDS011;54349;52.528;19.760;2022-07-05T14:12:58;1.60;;;1.30;;
67500;SDS011;54349;52.528;19.760;2022-07-05T14:15:26;2.20;;;1.60;;
67500;SDS011;54349;52.528;19.760;2022-07-05T14:17:55;2.10;;;1.50;;
67500;SDS011;54349;52.528;19.760;2022-07-05T14:20:24;2.30;;;1.40;;
67500;SDS011;54349;52.528;19.760;2022-07-05T14:22:53;1.40;;;1.30;;
67500;SDS011;54349;52.528;19.760;2022-07-05T14:25:21;1.70;;;1.40;;
67500;SDS011;54349;52.528;19.760;2022-07-05T14:27:49;1.80;;;1.40;;
67500;SDS011;54349;52.528;19.760;2022-07-05T14:30:17;2.40;;;1.50;;
67500;SDS011;54349;52.528;19.760;2022-07-05T14:32:45;1.50;;;1.40;;
67500;SDS011;54349;52.528;19.760;2022-07-05T14:35:17;2.00;;;1.40;;
67500;SDS011;54349;52.528;19.760;2022-07-05T14:37:46;3.10;;;2.20;;
67500;SDS011;54349;52.528;19.760;2022-07-05T14:40:14;3.20;;;1.90;;
67500;SDS011;54349;52.528;19.760;2022-07-05T14:42:43;4.10;;;2.40;;
67500;SDS011;54349;52.528;19.760;2022-07-05T14:45:11;6.40;;;3.60;;
67500;SDS011;54349;52.528;19.760;2022-07-05T14:47:39;8.80;;;3.10;;
67500;SDS011;54349;52.528;19.760;2022-07-05T14:50:07;5.00;;;3.10;;
67500;SDS011;54349;52.528;19.760;2022-07-05T14:52:35;6.00;;;3.30;;
67500;SDS011;54349;52.528;19.760;2022-07-05T14:55:04;5.00;;;3.10;;
67500;SDS011;54349;52.528;19.760;2022-07-05T14:57:33;5.50;;;3.30;;
67500;SDS011;54349;52.528;19.760;2022-07-05T15:00:04;6.50;;;3.60;;
67500;SDS011;54349;52.528;19.760;2022-07-05T15:02:37;5.80;;;3.60;;
67500;SDS011;54349;52.528;19.760;2022-07-05T15:05:06;6.60;;;3.60;;
67500;SDS011;54349;52.528;19.760;2022-07-05T15:07:39;6.10;;;3.80;;
67500;SDS011;54349;52.528;19.760;2022-07-05T15:10:08;6.20;;;3.80;;
67500;SDS011;54349;52.528;19.760;2022-07-05T15:12:37;6.80;;;4.00;;
67500;SDS011;54349;52.528;19.760;2022-07-05T15:15:06;6.00;;;4.10;;
67500;SDS011;54349;52.528;19.760;2022-07-05T15:17:35;8.30;;;4.40;;
67500;SDS011;54349;52.528;19.760;2022-07-05T15:20:04;8.10;;;4.50;;
67500;SDS011;54349;52.528;19.760;2022-07-05T15:22:33;6.30;;;4.20;;
67500;SDS011;54349;52.528;19.760;2022-07-05T15:25:02;6.70;;;4.40;;
67500;SDS011;54349;52.528;19.760;2022-07-05T15:27:31;7.50;;;4.30;;
67500;SDS011;54349;52.528;19.760;2022-07-05T15:30:00;7.40;;;4.50;;
67500;SDS011;54349;52.528;19.760;2022-07-05T15:32:28;7.20;;;4.40;;